Time;durP1;ratioP1;P1;durP2;ratioP2;P2;SDS_P1;SDS_P2;PMS_P1;PMS_P2;Temp;Humidity;BMP_temperature;BMP_pressure;BME280_temperature;BME280_humidity;BME280_pressure;Samples;Min_cycle;Max_cycle;Signal;HPM_P1;HPM_P2
2023/10/26 00:00:31;;;;;;;35.97;23.98;;;10.70;99.90;;;;;;4975979;28;20037;-76
2023/10/26 00:02:57;;;;;;;29.35;18.83;;;10.70;99.90;;;;;;4943052;28;20038;-77
2023/10/26 00:05:23;;;;;;;41.05;27.27;;;10.70;99.90;;;;;;4975518;28;20038;-76
2023/10/26 00:07:48;;;;;;;44.75;26.38;;;10.60;99.90;;;;;;4961799;28;20391;-76
2023/10/26 00:10:14;;;;;;;32.40;18.83;;;10.70;99.90;;;;;;4944761;28;20037;-76
2023/10/26 00:12:42;;;;;;;33.75;17.88;;;10.70;99.90;;;;;;4979862;28;20035;-76
2023/10/26 00:15:08;;;;;;;35.90;24.13;;;10.60;99.90;;;;;;4962884;28;20069;-76
2023/10/26 00:17:34;;;;;;;31.20;20.13;;;10.60;99.90;;;;;;4991644;28;20045;-76
2023/10/26 00:19:59;;;;;;;31.13;21.23;;;10.60;99.90;;;;;;4974127;28;20109;-77
2023/10/26 00:22:25;;;;;;;28.25;17.60;;;10.60;99.90;;;;;;4961743;28;20092;-76
2023/10/26 00:24:50;;;;;;;31.23;20.50;;;10.60;99.90;;;;;;4975032;28;20454;-76
2023/10/26 00:27:16;;;;;;;29.10;19.33;;;10.60;99.90;;;;;;4972876;28;20045;-76
2023/10/26 00:29:42;;;;;;;25.13;18.30;;;10.60;99.90;;;;;;4976947;28;20176;-77
2023/10/26 00:32:08;;;;;;;24.75;17.27;;;10.60;99.90;;;;;;4959654;28;20121;-77
2023/10/26 00:34:34;;;;;;;28.20;18.75;;;10.60;99.90;;;;;;4956562;28;20450;-77
2023/10/26 00:36:59;;;;;;;25.42;18.42;;;10.60;99.90;;;;;;4971250;28;20041;-77
2023/10/26 00:39:25;;;;;;;24.10;17.70;;;10.60;99.90;;;;;;4979022;28;20626;-77
2023/10/26 00:41:51;;;;;;;20.98;15.50;;;10.60;99.90;;;;;;4973478;28;20034;-77
2023/10/26 00:44:17;;;;;;;23.50;16.27;;;10.60;99.90;;;;;;4974720;28;20038;-77
2023/10/26 00:46:43;;;;;;;22.00;15.95;;;10.60;99.90;;;;;;4994689;28;20042;-76
2023/10/26 00:49:11;;;;;;;19.02;13.52;;;10.60;99.90;;;;;;4975578;28;20026;-77
2023/10/26 00:51:37;;;;;;;21.48;15.55;;;10.60;99.90;;;;;;4975557;28;20032;-76
2023/10/26 00:54:03;;;;;;;19.95;14.35;;;10.60;99.90;;;;;;4992357;28;20038;-76
2023/10/26 00:56:28;;;;;;;20.30;13.38;;;10.60;99.90;;;;;;4971421;28;20114;-76
2023/10/26 00:58:54;;;;;;;21.27;14.48;;;10.50;99.90;;;;;;4959411;28;20061;-77
2023/10/26 01:01:19;;;;;;;19.13;13.65;;;10.50;99.90;;;;;;4975221;28;20080;-77
2023/10/26 01:03:45;;;;;;;18.88;14.88;;;10.50;99.90;;;;;;4968914;28;20571;-77
2023/10/26 01:06:11;;;;;;;15.05;11.20;;;10.50;99.90;;;;;;4972926;28;20042;-77
2023/10/26 01:08:36;;;;;;;17.25;13.05;;;10.50;99.90;;;;;;4972727;28;20034;-77
2023/10/26 01:11:02;;;;;;;15.35;10.50;;;10.50;99.90;;;;;;4956044;28;20062;-77
2023/10/26 01:13:29;;;;;;;21.23;13.82;;;10.50;99.90;;;;;;4973418;28;20064;-76
2023/10/26 01:15:55;;;;;;;13.07;8.15;;;10.50;99.90;;;;;;4961031;28;20038;-76
2023/10/26 01:18:21;;;;;;;15.70;11.88;;;10.50;99.90;;;;;;4974287;28;20027;-76
2023/10/26 01:20:47;;;;;;;17.00;10.95;;;10.50;99.90;;;;;;4975367;28;20117;-76
2023/10/26 01:23:12;;;;;;;17.48;11.98;;;10.40;99.90;;;;;;4972209;28;20635;-76
2023/10/26 01:25:39;;;;;;;14.13;9.73;;;10.40;99.90;;;;;;4972702;28;20502;-77
2023/10/26 01:28:06;;;;;;;15.40;11.65;;;10.40;99.90;;;;;;4958652;28;20045;-77
2023/10/26 01:30:32;;;;;;;15.93;11.13;;;10.40;99.90;;;;;;4976648;28;20042;-76
2023/10/26 01:32:58;;;;;;;14.88;11.05;;;10.40;99.90;;;;;;4938693;28;20036;-76
2023/10/26 01:35:24;;;;;;;13.52;8.60;;;10.40;99.90;;;;;;4976847;28;20491;-77
2023/10/26 01:37:49;;;;;;;15.43;11.45;;;10.40;99.90;;;;;;4975808;28;20038;-76
2023/10/26 01:40:15;;;;;;;16.95;11.65;;;10.30;99.90;;;;;;4955420;28;20117;-75
2023/10/26 01:42:40;;;;;;;14.95;11.70;;;10.30;99.90;;;;;;4976126;28;20035;-76
2023/10/26 01:45:06;;;;;;;12.10;9.75;;;10.30;99.90;;;;;;4969741;28;20046;-76
2023/10/26 01:47:32;;;;;;;14.05;11.98;;;10.30;99.90;;;;;;4971993;28;20042;-75
2023/10/26 01:49:59;;;;;;;13.30;9.90;;;10.30;99.90;;;;;;4970803;28;20103;-76
2023/10/26 01:52:25;;;;;;;16.60;12.75;;;10.30;99.90;;;;;;4970638;28;20473;-76
2023/10/26 01:54:50;;;;;;;16.88;13.50;;;10.20;99.90;;;;;;4974301;28;20072;-76
2023/10/26 01:57:16;;;;;;;18.40;13.57;;;10.20;99.90;;;;;;4970659;28;20058;-77
2023/10/26 01:59:42;;;;;;;21.42;16.30;;;10.30;99.90;;;;;;4973937;28;20069;-76
2023/10/26 02:02:08;;;;;;;23.25;15.45;;;10.20;99.90;;;;;;4973159;28;20061;-76
2023/10/26 02:04:33;;;;;;;19.98;14.98;;;10.30;99.90;;;;;;4975590;28;20478;-75
2023/10/26 02:06:59;;;;;;;22.10;16.17;;;10.30;99.90;;;;;;4991812;28;20050;-76
2023/10/26 02:09:24;;;;;;;22.45;15.57;;;10.30;99.90;;;;;;4986061;28;20113;-76
2023/10/26 02:11:50;;;;;;;20.65;15.00;;;10.20;99.90;;;;;;4972690;28;20037;-76
2023/10/26 02:14:15;;;;;;;22.42;15.30;;;10.30;99.90;;;;;;4971327;28;20396;-76
2023/10/26 02:16:41;;;;;;;20.27;15.15;;;10.20;99.90;;;;;;4992705;28;20066;-76
2023/10/26 02:19:06;;;;;;;21.83;15.73;;;10.30;99.90;;;;;;4973205;28;20038;-76
2023/10/26 02:21:32;;;;;;;27.08;20.27;;;10.30;99.90;;;;;;4973969;28;20029;-75
2023/10/26 02:23:58;;;;;;;28.05;18.88;;;10.20;99.90;;;;;;4976967;28;20395;-76
2023/10/26 02:26:23;;;;;;;22.58;17.60;;;10.20;99.90;;;;;;4972369;28;20046;-76
2023/10/26 02:28:49;;;;;;;20.38;16.13;;;10.20;99.90;;;;;;4971235;28;20034;-77
2023/10/26 02:31:16;;;;;;;20.90;14.93;;;10.20;99.90;;;;;;4972275;28;20026;-76
2023/10/26 02:33:42;;;;;;;26.58;19.60;;;10.20;99.90;;;;;;4972057;28;20038;-76
2023/10/26 02:36:08;;;;;;;23.92;17.48;;;10.20;99.90;;;;;;4974072;28;20674;-76
2023/10/26 02:38:33;;;;;;;20.38;16.17;;;10.20;99.90;;;;;;4975617;28;20049;-76
2023/10/26 02:41:03;;;;;;;19.63;14.23;;;10.10;99.90;;;;;;4955122;28;20045;-77
2023/10/26 02:43:29;;;;;;;24.80;19.30;;;10.20;99.90;;;;;;4993301;28;20030;-77
2023/10/26 02:46:08;;;;;;;18.25;13.75;;;10.20;99.90;;;;;;4969276;28;20046;-77
2023/10/26 02:48:34;;;;;;;24.75;19.85;;;10.10;99.90;;;;;;4972097;28;20089;-77
2023/10/26 02:51:00;;;;;;;24.92;17.65;;;10.10;99.90;;;;;;4955563;28;20399;-76
2023/10/26 02:53:25;;;;;;;25.98;19.13;;;10.10;99.90;;;;;;4955800;28;20050;-76
2023/10/26 02:55:51;;;;;;;24.50;17.88;;;10.10;99.90;;;;;;4987813;28;20058;-77
2023/10/26 02:58:17;;;;;;;28.80;19.80;;;10.10;99.90;;;;;;4973041;28;20045;-76
2023/10/26 03:00:43;;;;;;;28.98;20.50;;;10.10;99.90;;;;;;4978609;28;20481;-76
2023/10/26 03:03:08;;;;;;;24.88;18.05;;;10.00;99.90;;;;;;4978636;28;20042;-76
2023/10/26 03:05:35;;;;;;;27.45;21.33;;;10.10;99.90;;;;;;4996497;28;20046;-77
2023/10/26 03:08:01;;;;;;;24.75;18.77;;;10.10;99.90;;;;;;4964695;28;20042;-77
2023/10/26 03:10:28;;;;;;;23.17;18.42;;;10.10;99.90;;;;;;4978848;28;20385;-76
2023/10/26 03:12:53;;;;;;;27.70;21.52;;;10.10;99.90;;;;;;4976628;28;20134;-76
2023/10/26 03:15:19;;;;;;;27.20;20.00;;;10.10;99.90;;;;;;4975731;28;20533;-77
2023/10/26 03:17:44;;;;;;;23.83;16.38;;;10.10;99.90;;;;;;4965291;28;21196;-77
2023/10/26 03:20:10;;;;;;;26.33;18.65;;;10.10;99.90;;;;;;4978415;28;20081;-76
2023/10/26 03:22:36;;;;;;;25.83;19.67;;;10.10;99.90;;;;;;4992503;28;20038;-76
2023/10/26 03:25:02;;;;;;;29.48;22.17;;;10.10;99.90;;;;;;4976415;28;20038;-76
2023/10/26 03:27:28;;;;;;;30.10;23.02;;;10.10;99.90;;;;;;4975700;28;20060;-76
2023/10/26 03:29:54;;;;;;;21.75;16.25;;;10.00;99.90;;;;;;4980676;28;20450;-77
2023/10/26 03:32:20;;;;;;;25.42;15.60;;;10.10;99.90;;;;;;4975360;28;20487;-76
2023/10/26 03:34:45;;;;;;;32.15;22.17;;;10.10;99.90;;;;;;4963057;28;20085;-76
2023/10/26 03:37:11;;;;;;;30.77;20.63;;;10.10;99.90;;;;;;4978105;28;20050;-76
2023/10/26 03:39:36;;;;;;;33.78;25.48;;;10.10;99.90;;;;;;4978093;28;20513;-76
2023/10/26 03:42:02;;;;;;;32.15;21.73;;;10.10;99.90;;;;;;4976874;28;20673;-78
2023/10/26 03:44:28;;;;;;;29.48;19.60;;;10.00;99.90;;;;;;4961152;28;20382;-77
2023/10/26 03:46:56;;;;;;;32.90;23.20;;;10.10;99.90;;;;;;4995819;28;20026;-77
2023/10/26 03:49:21;;;;;;;32.03;21.73;;;10.10;99.90;;;;;;4991729;28;20450;-76
2023/10/26 03:51:47;;;;;;;25.13;17.75;;;10.10;99.90;;;;;;4993547;28;20146;-76
2023/10/26 03:54:13;;;;;;;25.42;17.00;;;10.10;99.90;;;;;;4975916;28;20113;-76
2023/10/26 03:56:38;;;;;;;32.22;21.08;;;10.10;99.90;;;;;;4978691;28;20109;-77
2023/10/26 03:59:04;;;;;;;24.58;18.27;;;10.00;99.90;;;;;;4991111;28;20105;-76
2023/10/26 04:01:30;;;;;;;25.27;19.88;;;10.00;99.90;;;;;;4958925;28;20382;-76
2023/10/26 04:03:55;;;;;;;24.20;17.98;;;10.10;99.90;;;;;;4944784;28;20035;-77
2023/10/26 04:06:21;;;;;;;25.00;16.55;;;10.10;99.90;;;;;;4977291;28;20065;-76
2023/10/26 04:08:48;;;;;;;23.02;17.73;;;10.10;99.90;;;;;;4971326;28;20031;-77
2023/10/26 04:11:17;;;;;;;26.13;17.88;;;10.10;99.90;;;;;;4974850;28;20403;-77
2023/10/26 04:13:42;;;;;;;24.88;18.05;;;10.10;99.90;;;;;;4964006;28;20035;-76
2023/10/26 04:16:08;;;;;;;25.25;17.88;;;10.10;99.90;;;;;;4976906;28;20401;-76
2023/10/26 04:18:33;;;;;;;28.73;21.15;;;10.00;99.90;;;;;;4976466;28;20038;-77
2023/10/26 04:20:59;;;;;;;25.23;19.02;;;10.10;99.90;;;;;;4974166;28;20465;-75
2023/10/26 04:23:25;;;;;;;29.15;20.27;;;10.10;99.90;;;;;;4977869;28;20383;-76
2023/10/26 04:25:52;;;;;;;29.83;21.38;;;10.00;99.90;;;;;;4964304;28;20038;-77
2023/10/26 04:28:18;;;;;;;28.88;18.83;;;10.10;99.90;;;;;;4973235;28;20065;-77
2023/10/26 04:30:49;;;;;;;19.10;14.73;;;10.00;99.90;;;;;;4961428;28;20692;-77
2023/10/26 04:33:15;;;;;;;28.88;20.33;;;10.00;99.90;;;;;;4980618;28;20120;-76
2023/10/26 04:35:41;;;;;;;20.92;14.98;;;10.00;99.90;;;;;;4961718;28;20043;-77
2023/10/26 04:38:08;;;;;;;34.25;24.13;;;10.00;99.90;;;;;;4957742;28;20034;-76
2023/10/26 04:40:37;;;;;;;35.72;23.95;;;10.00;99.90;;;;;;4975919;28;20102;-76
2023/10/26 04:43:03;;;;;;;33.58;23.30;;;10.00;99.90;;;;;;4982653;28;20065;-84
2023/10/26 04:45:29;;;;;;;34.33;25.60;;;10.10;99.90;;;;;;4965544;28;20041;-84
2023/10/26 04:47:54;;;;;;;32.75;22.92;;;10.00;99.90;;;;;;4971521;28;20057;-80
2023/10/26 04:50:20;;;;;;;40.75;27.25;;;10.10;99.90;;;;;;4991505;28;20057;-78
2023/10/26 04:52:47;;;;;;;29.05;19.55;;;10.00;99.90;;;;;;4958714;28;21019;-80
2023/10/26 04:55:13;;;;;;;35.65;23.20;;;10.10;99.90;;;;;;4954504;28;20022;-84
2023/10/26 04:57:39;;;;;;;35.17;24.85;;;10.00;99.90;;;;;;4961933;28;20042;-84
2023/10/26 05:00:09;;;;;;;32.80;23.83;;;10.00;99.90;;;;;;4978409;28;20037;-80
2023/10/26 05:02:36;;;;;;;39.90;25.02;;;10.00;99.90;;;;;;4961626;28;20025;-84
2023/10/26 05:05:03;;;;;;;34.80;23.73;;;10.00;99.90;;;;;;4978274;28;20121;-83
2023/10/26 05:07:29;;;;;;;28.10;20.40;;;10.00;99.90;;;;;;4972253;28;20031;-80
2023/10/26 05:09:55;;;;;;;40.33;27.73;;;10.00;99.90;;;;;;4946259;28;20034;-82
2023/10/26 05:12:21;;;;;;;43.35;29.13;;;10.00;99.90;;;;;;4961876;28;20033;-85
2023/10/26 05:14:47;;;;;;;31.02;20.48;;;10.00;99.90;;;;;;4976161;28;20030;-83
2023/10/26 05:17:12;;;;;;;40.28;26.88;;;10.00;99.90;;;;;;4973319;28;20081;-85
2023/10/26 05:19:38;;;;;;;39.95;27.63;;;10.00;99.90;;;;;;4972382;28;20019;-84
2023/10/26 05:22:03;;;;;;;38.92;25.60;;;10.00;99.90;;;;;;4971040;28;20446;-81
2023/10/26 05:24:29;;;;;;;36.22;24.85;;;10.00;99.90;;;;;;4960641;28;20030;-84
2023/10/26 05:26:55;;;;;;;26.65;19.85;;;10.00;99.90;;;;;;4971078;28;20050;-83
2023/10/26 05:29:20;;;;;;;33.85;24.75;;;10.00;99.90;;;;;;4971841;28;20038;-85
2023/10/26 05:31:48;;;;;;;40.72;27.35;;;10.00;99.90;;;;;;4968908;28;20117;-83
2023/10/26 05:34:13;;;;;;;42.08;27.65;;;10.00;99.90;;;;;;4972480;28;20046;-82
2023/10/26 05:36:39;;;;;;;34.72;24.00;;;10.00;99.90;;;;;;4987490;28;20027;-81
2023/10/26 05:39:05;;;;;;;33.47;22.40;;;10.00;99.90;;;;;;4974698;28;20033;-81
2023/10/26 05:41:31;;;;;;;30.25;20.25;;;10.00;99.90;;;;;;4960792;28;20097;-84
2023/10/26 05:43:57;;;;;;;30.70;20.58;;;10.00;99.90;;;;;;4946502;28;20551;-82
2023/10/26 05:46:22;;;;;;;39.92;24.55;;;10.00;99.90;;;;;;4990415;28;20039;-84
2023/10/26 05:48:48;;;;;;;30.55;18.92;;;10.00;99.90;;;;;;4972493;28;20038;-84
2023/10/26 05:51:13;;;;;;;46.90;27.92;;;10.00;99.90;;;;;;4992515;28;20474;-80
2023/10/26 05:53:39;;;;;;;44.72;26.65;;;10.00;99.90;;;;;;4957292;28;20483;-83
2023/10/26 05:56:05;;;;;;;39.95;24.75;;;9.90;99.90;;;;;;4958107;28;20034;-83
2023/10/26 05:58:30;;;;;;;41.05;25.63;;;9.90;99.90;;;;;;4974487;28;20029;-84
2023/10/26 06:00:56;;;;;;;31.80;21.40;;;9.90;99.90;;;;;;4972671;28;20046;-83
2023/10/26 06:03:22;;;;;;;28.92;20.42;;;10.00;99.90;;;;;;4975667;28;20029;-81
2023/10/26 06:05:47;;;;;;;44.58;26.77;;;10.00;99.90;;;;;;4974039;28;20046;-84
2023/10/26 06:08:13;;;;;;;37.58;22.70;;;10.00;99.90;;;;;;4957524;28;20791;-84
2023/10/26 06:10:38;;;;;;;46.03;27.35;;;9.90;99.90;;;;;;4988946;28;20391;-84
2023/10/26 06:13:04;;;;;;;27.45;18.20;;;9.90;99.90;;;;;;4988993;28;20061;-83
2023/10/26 06:15:30;;;;;;;34.30;21.70;;;9.90;99.90;;;;;;4974121;28;20029;-82
2023/10/26 06:17:55;;;;;;;43.92;26.50;;;9.90;99.90;;;;;;4959263;28;20372;-84
2023/10/26 06:20:27;;;;;;;48.22;26.25;;;9.90;99.90;;;;;;4976016;28;20386;-79
2023/10/26 06:22:53;;;;;;;43.83;26.38;;;10.00;99.90;;;;;;4974135;28;20052;-83
2023/10/26 06:25:19;;;;;;;42.65;25.35;;;10.00;99.90;;;;;;4956292;28;20042;-83
2023/10/26 06:27:47;;;;;;;36.25;22.27;;;10.00;99.90;;;;;;4958520;28;20037;-81
2023/10/26 06:30:14;;;;;;;41.35;24.98;;;9.90;99.90;;;;;;4970981;28;20487;-83
2023/10/26 06:32:40;;;;;;;48.78;26.92;;;10.00;99.90;;;;;;4978229;28;20549;-83
2023/10/26 06:35:06;;;;;;;36.40;22.25;;;10.00;99.90;;;;;;4978478;28;20026;-82
2023/10/26 06:37:32;;;;;;;34.75;20.10;;;10.00;99.90;;;;;;4980447;28;20156;-82
2023/10/26 06:39:57;;;;;;;43.45;26.15;;;10.00;99.90;;;;;;4964551;28;20038;-84
2023/10/26 06:42:23;;;;;;;38.30;23.80;;;10.00;99.90;;;;;;4982896;28;20030;-82
2023/10/26 06:44:49;;;;;;;46.83;27.05;;;10.00;99.90;;;;;;4982168;28;20030;-82
2023/10/26 06:47:14;;;;;;;37.88;24.50;;;10.00;99.90;;;;;;4980978;28;20027;-79
2023/10/26 06:49:41;;;;;;;53.10;31.23;;;10.00;99.90;;;;;;4980426;28;20034;-81
2023/10/26 06:52:07;;;;;;;47.10;28.45;;;9.90;99.90;;;;;;4978582;28;20045;-81
2023/10/26 06:54:32;;;;;;;46.33;28.65;;;9.90;99.90;;;;;;4984379;28;20026;-80
2023/10/26 06:56:59;;;;;;;37.10;23.70;;;10.00;99.90;;;;;;4977643;28;20117;-81
2023/10/26 06:59:24;;;;;;;42.50;27.55;;;10.00;99.90;;;;;;4978696;28;20129;-81
2023/10/26 07:01:50;;;;;;;41.47;24.88;;;10.00;99.90;;;;;;4968995;28;20526;-84
2023/10/26 07:04:16;;;;;;;38.08;23.38;;;10.00;99.90;;;;;;4937216;28;20117;-81
2023/10/26 07:06:42;;;;;;;42.63;25.58;;;10.00;99.90;;;;;;4947549;28;20117;-82
2023/10/26 07:09:07;;;;;;;46.20;29.35;;;10.00;99.90;;;;;;4979332;28;20514;-81
2023/10/26 07:11:33;;;;;;;46.38;28.27;;;10.00;99.90;;;;;;4975761;28;20084;-79
2023/10/26 07:13:58;;;;;;;46.20;28.15;;;10.10;99.90;;;;;;4984595;28;20034;-82
2023/10/26 07:16:24;;;;;;;36.30;22.10;;;10.10;99.90;;;;;;4978122;28;20474;-81
2023/10/26 07:18:50;;;;;;;51.85;30.17;;;10.10;99.90;;;;;;4982333;28;20096;-82
2023/10/26 07:21:16;;;;;;;51.92;30.70;;;10.10;99.90;;;;;;4995408;28;20695;-81
2023/10/26 07:23:41;;;;;;;40.40;23.98;;;10.00;99.90;;;;;;4983083;28;20104;-81
2023/10/26 07:26:07;;;;;;;48.55;27.08;;;10.10;99.90;;;;;;4977438;28;20042;-82
2023/10/26 07:28:33;;;;;;;46.15;26.27;;;10.10;99.90;;;;;;4963493;28;20062;-81
2023/10/26 07:30:58;;;;;;;37.22;21.50;;;10.10;99.90;;;;;;4987937;28;20064;-79
2023/10/26 07:33:24;;;;;;;45.58;27.17;;;10.10;99.90;;;;;;4950313;28;20080;-80
2023/10/26 07:35:51;;;;;;;48.17;26.73;;;10.10;99.90;;;;;;4977280;28;20026;-82
2023/10/26 07:38:17;;;;;;;37.28;21.77;;;10.10;99.90;;;;;;4979448;28;20053;-81
2023/10/26 07:40:49;;;;;;;44.08;24.52;;;10.20;99.90;;;;;;4977328;28;20026;-81
2023/10/26 07:43:15;;;;;;;44.10;25.05;;;10.20;99.90;;;;;;4959942;28;20652;-81
2023/10/26 07:45:40;;;;;;;40.65;24.25;;;10.20;99.90;;;;;;4975599;28;20038;-81
2023/10/26 07:48:06;;;;;;;36.83;20.77;;;10.20;99.90;;;;;;4978591;28;20030;-81
2023/10/26 07:50:31;;;;;;;39.72;25.42;;;10.20;99.90;;;;;;4976025;28;20026;-81
2023/10/26 07:52:57;;;;;;;42.35;25.08;;;10.20;99.90;;;;;;4974075;28;20046;-81
2023/10/26 07:55:22;;;;;;;46.03;26.65;;;10.30;99.90;;;;;;4975782;28;20030;-81
2023/10/26 07:57:48;;;;;;;36.78;21.15;;;10.30;99.90;;;;;;4993015;28;20057;-81
2023/10/26 08:00:14;;;;;;;36.70;21.00;;;10.40;99.90;;;;;;4977663;28;20018;-80
2023/10/26 08:02:40;;;;;;;40.67;23.48;;;10.40;99.90;;;;;;4962594;28;20031;-81
2023/10/26 08:05:06;;;;;;;36.65;21.85;;;10.40;99.90;;;;;;4974779;28;20529;-81
2023/10/26 08:07:31;;;;;;;38.45;23.83;;;10.40;99.90;;;;;;4955405;28;20368;-81
2023/10/26 08:09:57;;;;;;;31.70;20.77;;;10.50;99.90;;;;;;4974106;28;20026;-81
2023/10/26 08:12:23;;;;;;;41.85;25.25;;;10.50;99.90;;;;;;4976330;28;20030;-81
2023/10/26 08:14:50;;;;;;;42.53;23.75;;;10.50;99.90;;;;;;4958656;28;20035;-81
2023/10/26 08:17:16;;;;;;;39.47;23.90;;;10.60;99.90;;;;;;4962832;28;20561;-80
2023/10/26 08:19:42;;;;;;;37.47;21.50;;;10.60;99.90;;;;;;4977601;28;20038;-80
2023/10/26 08:22:09;;;;;;;37.75;21.20;;;10.60;99.90;;;;;;4971962;28;20034;-79
2023/10/26 08:24:35;;;;;;;34.33;19.05;;;10.70;99.90;;;;;;4974962;28;20038;-80
2023/10/26 08:27:00;;;;;;;39.58;23.92;;;10.70;99.90;;;;;;4976178;28;20501;-78
2023/10/26 08:29:28;;;;;;;35.47;21.00;;;10.70;99.90;;;;;;4974266;28;20034;-80
2023/10/26 08:31:53;;;;;;;37.13;22.20;;;10.70;99.90;;;;;;4957492;28;20039;-80
2023/10/26 08:34:19;;;;;;;37.92;22.77;;;10.70;99.90;;;;;;4975757;28;20042;-80
2023/10/26 08:36:46;;;;;;;34.42;18.02;;;10.70;99.90;;;;;;4962340;28;20038;-79
2023/10/26 08:39:12;;;;;;;34.05;22.58;;;10.80;99.90;;;;;;4978542;28;20141;-78
2023/10/26 08:41:38;;;;;;;31.00;21.00;;;10.80;99.90;;;;;;4960901;28;20030;-80
2023/10/26 08:44:04;;;;;;;31.63;20.77;;;10.90;99.90;;;;;;4978454;28;20033;-80
2023/10/26 08:46:29;;;;;;;31.50;19.83;;;10.90;99.90;;;;;;4975022;28;20034;-80
2023/10/26 08:48:56;;;;;;;28.77;18.27;;;11.00;99.90;;;;;;4973102;28;20486;-80
2023/10/26 08:51:21;;;;;;;28.17;18.65;;;11.00;99.90;;;;;;4977225;28;20038;-80
2023/10/26 08:53:47;;;;;;;30.65;20.58;;;11.10;99.90;;;;;;4979506;28;20132;-80
2023/10/26 08:56:15;;;;;;;30.10;19.45;;;11.10;99.90;;;;;;4989381;28;20038;-80
2023/10/26 08:58:41;;;;;;;28.45;18.17;;;11.10;99.90;;;;;;4974613;28;20054;-79
2023/10/26 09:01:07;;;;;;;26.90;17.42;;;11.10;99.90;;;;;;4971891;28;20086;-80
2023/10/26 09:03:35;;;;;;;24.67;17.10;;;11.20;99.90;;;;;;4956681;28;20030;-80
2023/10/26 09:06:01;;;;;;;27.20;16.25;;;11.20;99.90;;;;;;4974519;28;20100;-79
2023/10/26 09:08:30;;;;;;;25.67;17.52;;;11.20;99.90;;;;;;4974585;28;20034;-80
2023/10/26 09:10:56;;;;;;;30.25;17.38;;;11.20;99.90;;;;;;4974330;28;20486;-79
2023/10/26 09:13:25;;;;;;;28.77;18.60;;;11.20;99.90;;;;;;4956475;28;20083;-80
2023/10/26 09:15:52;;;;;;;30.05;17.63;;;11.30;99.90;;;;;;4959582;28;20418;-80
2023/10/26 09:18:17;;;;;;;26.77;16.75;;;11.30;99.90;;;;;;4955232;28;20117;-80
2023/10/26 09:20:44;;;;;;;26.75;13.85;;;11.30;99.90;;;;;;4975160;28;20472;-80
2023/10/26 09:23:28;;;;;;;27.33;16.35;;;11.30;99.90;;;;;;4976634;28;20513;-79
2023/10/26 09:26:00;;;;;;;29.52;17.13;;;11.40;99.90;;;;;;4977162;28;20104;-79
2023/10/26 09:28:27;;;;;;;31.05;19.75;;;11.40;99.90;;;;;;4960363;28;20571;-81
2023/10/26 09:31:02;;;;;;;29.42;19.42;;;11.50;99.90;;;;;;4996218;28;20408;-80
2023/10/26 09:33:27;;;;;;;29.60;18.80;;;11.50;99.90;;;;;;4974886;28;20104;-80
2023/10/26 09:35:53;;;;;;;25.42;14.82;;;11.50;99.90;;;;;;4990971;28;20434;-80
2023/10/26 09:38:37;;;;;;;33.03;21.50;;;11.60;99.90;;;;;;4975240;28;20038;-80
2023/10/26 09:41:10;;;;;;;33.00;21.23;;;11.60;99.90;;;;;;4972891;28;20514;-80
2023/10/26 09:43:36;;;;;;;38.05;23.67;;;11.60;99.90;;;;;;4958042;28;20041;-78
2023/10/26 09:46:02;;;;;;;27.55;18.33;;;11.70;99.90;;;;;;4962922;28;20042;-80
2023/10/26 09:48:28;;;;;;;34.33;24.38;;;11.70;99.90;;;;;;4961550;28;20034;-80
2023/10/26 09:50:54;;;;;;;36.65;22.17;;;11.90;99.90;;;;;;4973535;28;20105;-80
2023/10/26 09:53:20;;;;;;;36.15;21.85;;;12.00;99.90;;;;;;4975200;28;20120;-80
2023/10/26 09:55:47;;;;;;;31.45;20.60;;;12.00;99.90;;;;;;4972861;28;20560;-80
2023/10/26 09:58:12;;;;;;;28.05;20.02;;;12.10;99.90;;;;;;4973746;28;20034;-80
2023/10/26 10:00:38;;;;;;;37.03;22.88;;;12.20;99.90;;;;;;4974702;28;20364;-80
2023/10/26 10:03:10;;;;;;;38.17;26.10;;;12.20;99.90;;;;;;4941752;28;20088;-79
2023/10/26 10:05:40;;;;;;;30.83;19.95;;;12.30;99.90;;;;;;4970127;28;20034;-78
2023/10/26 10:08:06;;;;;;;36.50;23.20;;;12.40;99.90;;;;;;4973332;28;20042;-79
2023/10/26 10:10:33;;;;;;;36.28;23.85;;;12.50;99.90;;;;;;4955787;28;20092;-80
2023/10/26 10:12:58;;;;;;;39.97;24.48;;;12.50;99.90;;;;;;4972474;28;20096;-80
2023/10/26 10:15:34;;;;;;;33.90;21.80;;;12.60;99.90;;;;;;4971788;28;20447;-79
2023/10/26 10:18:01;;;;;;;38.55;22.63;;;12.70;99.90;;;;;;4975358;28;20037;-80
2023/10/26 10:20:27;;;;;;;37.10;22.25;;;12.90;99.90;;;;;;4975701;28;20044;-80
2023/10/26 10:22:53;;;;;;;34.28;22.17;;;13.10;99.90;;;;;;4975654;28;20490;-81
2023/10/26 10:25:19;;;;;;;28.60;18.55;;;13.20;99.90;;;;;;4970238;28;20658;-81
2023/10/26 10:27:48;;;;;;;28.73;18.10;;;13.30;99.90;;;;;;4974813;28;20030;-82
2023/10/26 10:30:13;;;;;;;31.08;20.00;;;13.40;99.90;;;;;;4989518;28;20031;-80
2023/10/26 10:32:46;;;;;;;30.30;19.48;;;13.50;99.90;;;;;;4958706;28;20027;-80
2023/10/26 10:35:25;;;;;;;33.10;20.58;;;13.60;99.90;;;;;;4992566;28;20038;-80
2023/10/26 10:38:18;;;;;;;30.55;20.27;;;13.70;99.90;;;;;;4973740;28;20386;-81
2023/10/26 10:40:58;;;;;;;35.00;23.13;;;13.80;99.90;;;;;;4966898;28;20324;-80
2023/10/26 10:43:30;;;;;;;34.22;21.80;;;14.00;99.90;;;;;;4983836;28;20038;-80
2023/10/26 10:45:55;;;;;;;33.95;21.15;;;14.00;99.90;;;;;;4993074;28;20042;-81
2023/10/26 10:48:21;;;;;;;30.45;20.63;;;14.00;99.90;;;;;;4973464;28;20084;-81
2023/10/26 10:50:50;;;;;;;28.45;18.48;;;14.10;99.90;;;;;;4958115;28;20113;-81
2023/10/26 10:53:15;;;;;;;29.45;20.95;;;14.10;99.90;;;;;;4972635;28;20057;-81
2023/10/26 10:55:41;;;;;;;31.25;20.10;;;14.10;99.90;;;;;;4975133;28;20760;-81
2023/10/26 10:58:07;;;;;;;30.70;20.38;;;14.20;99.90;;;;;;4954383;28;20481;-80
2023/10/26 11:00:44;;;;;;;28.17;17.77;;;14.10;99.90;;;;;;4968726;28;20089;-81
2023/10/26 11:03:19;;;;;;;24.40;17.58;;;14.20;99.90;;;;;;4970678;28;20538;-81
2023/10/26 11:05:45;;;;;;;24.77;15.98;;;14.30;99.90;;;;;;4971488;28;20040;-81
2023/10/26 11:08:11;;;;;;;24.85;16.25;;;14.20;99.90;;;;;;4944397;28;20394;-81
2023/10/26 11:10:37;;;;;;;24.65;16.35;;;14.30;99.90;;;;;;4957588;28;20061;-81
2023/10/26 11:13:03;;;;;;;22.02;15.02;;;14.30;99.90;;;;;;4956939;28;20042;-80
2023/10/26 11:15:38;;;;;;;20.45;13.70;;;14.30;99.90;;;;;;4971844;28;20369;-80
2023/10/26 11:18:06;;;;;;;18.58;13.27;;;14.20;99.90;;;;;;4955386;28;20554;-80
2023/10/26 11:20:42;;;;;;;14.40;11.00;;;14.30;99.90;;;;;;4979737;28;20038;-80
2023/10/26 11:23:09;;;;;;;12.02;9.80;;;14.30;99.90;;;;;;4956391;28;20487;-80
2023/10/26 11:25:34;;;;;;;10.50;9.10;;;14.30;99.90;;;;;;4962579;28;20389;-81
2023/10/26 11:28:00;;;;;;;14.05;9.55;;;14.30;99.90;;;;;;4977291;28;20034;-80
2023/10/26 11:30:25;;;;;;;12.95;9.50;;;14.60;99.90;;;;;;4975292;28;20038;-80
2023/10/26 11:32:51;;;;;;;12.63;9.73;;;14.40;99.90;;;;;;4960629;28;20395;-80
2023/10/26 11:35:16;;;;;;;15.35;9.57;;;14.30;99.90;;;;;;4974602;28;20054;-81
2023/10/26 11:37:46;;;;;;;12.30;8.23;;;14.40;99.90;;;;;;4976871;28;20049;-80
2023/10/26 11:40:13;;;;;;;13.27;9.25;;;14.60;99.90;;;;;;4981225;28;20038;-81
2023/10/26 11:42:50;;;;;;;12.75;8.88;;;14.90;99.90;;;;;;4960256;28;20033;-80
2023/10/26 11:45:17;;;;;;;11.10;8.43;;;15.00;99.90;;;;;;4994314;28;20053;-80
2023/10/26 11:47:54;;;;;;;11.88;8.77;;;15.20;99.90;;;;;;4993090;28;20458;-81
2023/10/26 11:50:21;;;;;;;10.35;7.78;;;15.20;99.90;;;;;;4993600;28;20052;-81
2023/10/26 11:52:46;;;;;;;9.05;7.65;;;15.10;99.90;;;;;;4957530;28;20039;-80
2023/10/26 11:55:14;;;;;;;9.07;8.07;;;15.30;99.90;;;;;;4973704;28;20120;-81
2023/10/26 11:57:40;;;;;;;9.73;7.97;;;15.40;99.90;;;;;;4978039;28;20038;-80
2023/10/26 12:00:06;;;;;;;9.05;7.47;;;15.30;99.90;;;;;;4958568;28;20526;-80
2023/10/26 12:02:33;;;;;;;8.52;7.35;;;15.10;99.90;;;;;;4973508;28;20498;-80
2023/10/26 12:05:03;;;;;;;8.02;6.53;;;15.20;99.90;;;;;;4961610;28;20045;-80
2023/10/26 12:07:28;;;;;;;7.05;6.32;;;15.20;99.90;;;;;;4960844;28;20544;-79
2023/10/26 12:09:54;;;;;;;8.75;6.90;;;15.10;99.90;;;;;;4974685;28;20026;-80
2023/10/26 12:12:20;;;;;;;9.05;7.68;;;15.00;99.90;;;;;;4972173;28;20121;-80
2023/10/26 12:14:47;;;;;;;9.13;6.38;;;15.10;99.90;;;;;;4979744;28;20060;-80
2023/10/26 12:17:12;;;;;;;8.05;6.25;;;15.00;99.90;;;;;;4977702;28;20109;-81
2023/10/26 12:19:38;;;;;;;7.00;6.20;;;14.90;99.90;;;;;;4977551;28;20129;-80
2023/10/26 12:22:03;;;;;;;8.55;6.28;;;14.80;99.90;;;;;;4943957;28;20102;-80
2023/10/26 12:24:29;;;;;;;8.07;5.57;;;14.90;99.90;;;;;;4959733;28;20026;-79